Date,TemperatureHighF,TemperatureAvgF,TemperatureLowF,DewpointHighF,DewpointAvgF,DewpointLowF,HumidityHigh,HumidityAvg,HumidityLow,PressureMaxIn,PressureMinIn,WindSpeedMaxMPH,WindSpeedAvgMPH,GustSpeedMaxMPH,PrecipitationSumIn
2013-7-1,82,70,65,71,66,63,97,89,62,29.95,29.83,7,0,8,0.04
2013-7-2,84,74,66,71,68,65,96,83,61,30.05,29.92,8,0,8,0.05
2013-7-3,77,70,68,71,68,67,96,93,81,30.14,30.04,6,0,7,0.14
2013-7-4,80,73,69,72,70,68,96,88,74,30.20,30.12,8,0,9,0.06
2013-7-5,82,73,68,72,70,67,96,89,72,30.16,30.09,10,1,10,0.21
2013-7-6,87,76,69,76,71,68,97,83,61,30.16,30.01,10,1,12,0.00
2013-7-7,81,74,69,70,67,64,91,80,63,30.10,30.00,12,1,12,0.01
2013-7-8,86,73,63,73,67,61,94,82,62,30.12,30.03,10,1,12,0.22
2013-7-9,88,75,70,78,71,68,95,90,68,30.09,29.94,8,1,14,1.10
2013-7-10,86,71,66,78,69,64,96,94,78,29.99,29.85,14,1,14,0.91
2013-7-11,77,68,65,66,65,63,96,91,64,30.00,29.92,6,0,6,0.01
2013-7-12,80,70,66,68,65,63,92,83,59,30.11,30.06,4,0,4,0.00
2013-7-13,89,73,62,72,66,61,96,79,51,30.21,30.10,5,0,7,0.00
2013-7-14,90,77,66,77,70,65,97,80,53,30.26,30.19,13,1,13,0.00
2013-7-15,95,80,69,77,71,68,97,78,46,30.33,30.23,7,0,7,0.00
2013-7-16,96,78,69,79,74,68,97,86,53,30.32,30.24,7,0,7,0.05
2013-7-17,95,81,71,79,74,70,97,82,52,30.29,30.13,7,0,7,0.00
2013-7-18,96,82,72,79,74,71,97,80,51,30.18,30.00,7,0,8,0.00
2013-7-19,93,79,73,76,73,70,95,83,55,30.01,29.85,14,1,15,0.37
2013-7-20,81,75,72,72,70,68,94,85,68,29.92,29.82,13,1,13,0.03
2013-7-21,88,74,69,75,70,67,96,87,57,29.96,29.89,10,0,10,0.31
2013-7-22,74,70,67,73,69,66,97,95,92,29.94,29.76,10,0,11,1.61
2013-7-23,83,71,65,74,67,64,97,90,68,29.80,29.66,13,1,14,0.67
2013-7-24,76,66,57,66,59,54,96,79,52,30.02,29.77,7,0,7,0.00
2013-7-25,80,64,51,60,55,50,96,75,40,30.10,30.01,11,0,11,0.00
2013-7-26,82,67,52,65,57,50,97,75,40,30.12,29.99,8,0,8,0.00
2013-7-27,71,66,62,68,64,60,95,91,82,29.99,29.83,11,0,11,0.10
2013-7-28,72,64,57,64,57,52,96,78,52,30.04,29.84,13,1,13,0.01
2013-7-29,74,64,53,62,56,51,95,77,51,30.21,30.04,14,1,15,0.00
2013-7-30,82,66,52,65,58,51,96,79,43,30.25,30.15,8,0,8,0.00
2013-7-31,76,67,59,69,64,58,96,89,72,30.16,29.94,4,0,5,0.05